KBEH

Southwest Michigan Regional Airport

Benton Harbor, Michigan, USA
METAR KBEH 180653Z AUTO 30007G16KT 10SM OVC018 M01/M04 A3016 RMK AO2 SLP219 T10061044
Observed Flight Rules
Feb-18 @ 06:53 UTC (23 minutes ago) Marginal Visual Flight Rules
Wind Visibility Clouds
300° at 7 knots
 Gusting to 16 knots
10 miles
  • Overcast at 1,800' AGL
Temperatures Readings
Current -1°C / 30°F
Dewpoint -4°C / 25°F
Humidity 80%
Altimeter 30.16" Hg
Pressure 1021.9 hPa
Elevation 191
METAR KBEH 180653Z AUTO 30007G16KT 10SM OVC018 M01/M04 A3016 RMK AO2 SLP219 T10061044
Observed Flight Rules
Feb-18 @ 06:53 UTC
(23 minutes ago)
MVFR
Wind Visibility
300° at 7 knots
 Gusting to 16 knots
10 miles
Clouds
  • Overcast at 1,800' AGL
Temperature Dewpoint
-1°C / 30°F -4°C / 25°F
Humidity Altimeter Pressure
80% 30.16" Hg 1021.9 hPa